Terminal Aerodrome Forecast
Issued by NWS

Home | Current Version | Previous Version | Text Only | Print | Product List | Glossary On
Versions: 1 2 3 4 5 6 7 8 9 10 11 12 13 14 15 16 17 18
000
FTUS41 KGYX 230520
TAFHIE
TAF
KHIE 230520Z 2306/2406 00000KT P6SM SCT250
      TEMPO 2309/2312 4SM BR SCT015
     FM231800 22005KT P6SM BKN025 OVC050=

USA.gov is the U.S. government's official web portal to all federal, state and local government web resources and services.